createdAt,value
2022-10-18T00:02:13.530Z,16.38
2022-10-18T00:04:40.550Z,16.35
2022-10-18T00:07:07.247Z,16.41
2022-10-18T00:09:33.891Z,16.41
2022-10-18T00:12:00.410Z,16.33
2022-10-18T00:14:27.098Z,16.31
2022-10-18T00:16:53.396Z,16.29
2022-10-18T00:19:19.854Z,16.32
2022-10-18T00:21:46.157Z,16.31
2022-10-18T00:24:12.581Z,16.30
2022-10-18T00:26:38.887Z,16.32
2022-10-18T00:29:06.185Z,16.27
2022-10-18T00:31:35.570Z,16.27
2022-10-18T00:34:04.756Z,16.29
2022-10-18T00:36:32.938Z,16.28
2022-10-18T00:38:59.401Z,16.26
2022-10-18T00:41:29.443Z,16.25
2022-10-18T00:44:04.986Z,16.27
2022-10-18T00:46:32.847Z,16.31
2022-10-18T00:49:02.173Z,16.29
2022-10-18T00:51:32.894Z,16.26
2022-10-18T00:53:59.326Z,16.30
2022-10-18T00:56:26.339Z,16.30
2022-10-18T00:58:52.860Z,16.32
2022-10-18T01:01:22.137Z,16.27
2022-10-18T01:03:52.066Z,16.28
2022-10-18T01:06:18.604Z,16.27
2022-10-18T01:08:53.787Z,16.30
2022-10-18T01:11:32.014Z,16.31
2022-10-18T01:14:30.650Z,16.29
2022-10-18T01:17:08.070Z,16.27
2022-10-18T01:20:02.699Z,16.31
2022-10-18T01:22:37.661Z,16.32
2022-10-18T01:25:23.625Z,16.33
2022-10-18T01:28:13.152Z,16.32
2022-10-18T01:30:41.212Z,16.31
2022-10-18T01:33:27.415Z,16.29
2022-10-18T01:36:07.965Z,16.37
2022-10-18T01:38:36.570Z,16.35
2022-10-18T01:41:04.743Z,16.33
2022-10-18T01:43:34.016Z,16.28
2022-10-18T01:46:00.825Z,16.28
2022-10-18T01:48:29.574Z,16.27
2022-10-18T01:50:56.718Z,16.27
2022-10-18T01:53:31.857Z,16.33
2022-10-18T01:56:16.457Z,16.34
2022-10-18T01:58:57.042Z,16.31
2022-10-18T02:01:49.736Z,16.31
2022-10-18T02:04:27.483Z,16.32
2022-10-18T02:07:02.973Z,16.35
2022-10-18T02:09:41.280Z,16.56
2022-10-18T02:12:10.932Z,16.62
2022-10-18T02:14:38.679Z,16.43
2022-10-18T02:17:09.769Z,16.31
2022-10-18T02:19:41.477Z,16.29
2022-10-18T02:22:10.755Z,16.26
2022-10-18T02:24:42.983Z,16.20
2022-10-18T02:27:10.028Z,16.24
2022-10-18T02:29:36.837Z,16.30
2022-10-18T02:32:16.520Z,16.27
2022-10-18T02:34:49.206Z,16.24
2022-10-18T02:37:17.580Z,16.23
2022-10-18T02:39:48.271Z,16.17
2022-10-18T02:42:15.727Z,16.15
2022-10-18T02:44:42.144Z,16.10
2022-10-18T02:47:10.725Z,16.14
2022-10-18T02:49:37.150Z,16.07
2022-10-18T02:52:04.019Z,16.11
2022-10-18T02:54:30.534Z,16.13
2022-10-18T02:56:56.868Z,16.08
2022-10-18T02:59:23.387Z,16.13
2022-10-18T03:01:49.765Z,16.14
2022-10-18T03:04:16.288Z,16.09
2022-10-18T03:06:43.004Z,16.03
2022-10-18T03:09:09.711Z,16.10
2022-10-18T03:11:36.111Z,16.08
2022-10-18T03:14:02.578Z,16.04
2022-10-18T03:16:29.028Z,16.02
2022-10-18T03:18:55.676Z,16.08
2022-10-18T03:21:22.035Z,16.11
2022-10-18T03:23:48.457Z,16.10
2022-10-18T03:26:14.794Z,16.05
2022-10-18T03:28:41.627Z,16.14
2022-10-18T03:31:08.218Z,16.12
2022-10-18T03:33:34.757Z,16.10
2022-10-18T03:36:01.103Z,16.12
2022-10-18T03:38:27.660Z,16.07
2022-10-18T03:40:54.042Z,16.09
2022-10-18T03:43:20.500Z,16.10
2022-10-18T03:45:46.936Z,16.09
2022-10-18T03:48:13.354Z,16.05
2022-10-18T03:50:39.725Z,15.97
2022-10-18T03:53:06.357Z,16.22
2022-10-18T03:55:32.798Z,16.33
2022-10-18T03:57:59.170Z,16.23
2022-10-18T04:00:25.962Z,16.17
2022-10-18T04:02:55.089Z,16.13
2022-10-18T04:05:23.171Z,16.09
2022-10-18T04:07:50.412Z,16.07
2022-10-18T04:10:16.809Z,16.08
2022-10-18T04:12:43.340Z,16.07
2022-10-18T04:15:10.374Z,16.09
2022-10-18T04:17:36.820Z,16.09
2022-10-18T04:20:03.356Z,16.14
2022-10-18T04:22:29.758Z,16.24
2022-10-18T04:24:56.391Z,16.24
2022-10-18T04:27:22.893Z,16.22
2022-10-18T04:29:49.274Z,16.18
2022-10-18T04:32:15.865Z,16.18
2022-10-18T04:37:09.534Z,16.20
2022-10-18T04:39:35.869Z,16.18
2022-10-18T04:42:02.478Z,16.22
2022-10-18T04:44:29.049Z,16.24
2022-10-18T04:46:55.761Z,16.26
2022-10-18T04:49:22.080Z,16.24
2022-10-18T04:51:48.713Z,16.22
2022-10-18T04:54:15.098Z,16.21
2022-10-18T04:56:41.535Z,16.22
2022-10-18T04:59:07.995Z,16.21
2022-10-18T05:01:34.398Z,16.25
2022-10-18T05:04:01.003Z,16.32
2022-10-18T05:06:27.477Z,16.32
2022-10-18T05:08:54.964Z,16.27
2022-10-18T05:11:21.614Z,16.25
2022-10-18T05:13:50.175Z,16.31
2022-10-18T05:16:17.553Z,16.35
2022-10-18T05:18:43.918Z,16.34
2022-10-18T05:21:10.360Z,16.34
2022-10-18T05:23:36.651Z,16.32
2022-10-18T05:26:05.974Z,16.34
2022-10-18T05:28:39.790Z,16.35
2022-10-18T05:31:09.036Z,16.35
2022-10-18T05:33:35.954Z,16.35
2022-10-18T05:36:02.403Z,16.39
2022-10-18T05:38:29.131Z,16.32
2022-10-18T05:40:55.693Z,16.30
2022-10-18T05:43:22.273Z,16.48
2022-10-18T05:45:51.352Z,16.43
2022-10-18T05:48:18.485Z,16.37
2022-10-18T05:50:45.365Z,16.34
2022-10-18T05:53:18.345Z,16.34
2022-10-18T05:56:01.693Z,16.35
2022-10-18T05:58:28.148Z,16.39
2022-10-18T06:00:54.590Z,16.55
2022-10-18T06:03:21.267Z,16.56
2022-10-18T06:05:47.634Z,16.47
2022-10-18T06:08:14.102Z,16.41
2022-10-18T06:10:40.847Z,16.37
2022-10-18T06:13:07.464Z,16.37
2022-10-18T06:15:34.149Z,16.35
2022-10-18T06:18:00.800Z,16.37
2022-10-18T06:20:27.172Z,16.35
2022-10-18T06:22:53.580Z,16.33
2022-10-18T06:25:19.935Z,16.35
2022-10-18T06:27:46.390Z,16.36
2022-10-18T06:30:12.755Z,16.37
2022-10-18T06:32:39.151Z,16.41
2022-10-18T06:35:06.167Z,16.37
2022-10-18T06:37:32.731Z,16.38
2022-10-18T06:39:59.310Z,16.38
2022-10-18T06:42:25.782Z,16.40
2022-10-18T06:44:52.210Z,16.38
2022-10-18T06:47:18.526Z,16.42
2022-10-18T06:49:44.995Z,16.42
2022-10-18T06:52:11.323Z,16.41
2022-10-18T06:54:37.683Z,16.46
2022-10-18T06:57:04.107Z,16.46
2022-10-18T06:59:31.424Z,16.47
2022-10-18T07:01:58.444Z,16.47
2022-10-18T07:04:28.361Z,16.47
2022-10-18T07:06:54.945Z,16.48
2022-10-18T07:09:21.254Z,16.50
2022-10-18T07:11:47.578Z,16.53
2022-10-18T07:14:16.398Z,16.48
2022-10-18T07:16:42.939Z,16.52
2022-10-18T07:19:09.283Z,16.43
2022-10-18T07:21:35.982Z,16.47
2022-10-18T07:24:02.513Z,16.41
2022-10-18T07:26:31.298Z,16.45
2022-10-18T07:29:15.516Z,16.43
2022-10-18T07:31:41.948Z,16.41
2022-10-18T07:34:11.725Z,16.38
2022-10-18T07:36:38.282Z,16.39
2022-10-18T07:39:05.806Z,16.39
2022-10-18T07:41:32.758Z,16.41
2022-10-18T07:44:00.281Z,16.40
2022-10-18T07:46:26.765Z,16.38
2022-10-18T07:48:54.649Z,16.39
2022-10-18T07:51:21.707Z,16.41
2022-10-18T07:53:48.413Z,16.41
2022-10-18T07:56:17.258Z,16.44
2022-10-18T07:58:44.389Z,16.44
2022-10-18T08:01:11.802Z,16.44
2022-10-18T08:03:38.689Z,16.47
2022-10-18T08:06:07.085Z,16.51
2022-10-18T08:08:33.680Z,16.53
2022-10-18T08:11:08.790Z,16.58
2022-10-18T08:13:35.623Z,16.61
2022-10-18T08:16:10.844Z,16.61
2022-10-18T08:18:38.018Z,16.63
2022-10-18T08:21:07.011Z,16.62
2022-10-18T08:23:34.441Z,16.65
2022-10-18T08:26:02.119Z,16.64
2022-10-18T08:28:29.566Z,16.70
2022-10-18T08:30:56.107Z,16.69
2022-10-18T08:33:23.506Z,16.70
2022-10-18T08:35:57.808Z,16.72
2022-10-18T08:38:24.404Z,16.73
2022-10-18T08:40:51.636Z,16.73
2022-10-18T08:43:30.369Z,16.71
2022-10-18T08:45:57.401Z,16.72
2022-10-18T08:48:44.072Z,16.73
2022-10-18T08:51:27.556Z,16.78
2022-10-18T08:54:15.656Z,16.81
2022-10-18T08:56:46.968Z,16.81
2022-10-18T08:59:13.969Z,16.84
2022-10-18T09:02:12.865Z,16.92
2022-10-18T09:05:12.830Z,16.91
2022-10-18T09:08:03.475Z,16.89
2022-10-18T09:10:35.797Z,16.88
2022-10-18T09:13:02.128Z,16.91
2022-10-18T09:15:49.603Z,16.96
2022-10-18T09:18:32.039Z,16.99
2022-10-18T09:21:14.559Z,16.97
2022-10-18T09:24:05.460Z,16.97
2022-10-18T09:26:45.571Z,16.97
2022-10-18T09:33:08.463Z,16.99
2022-10-18T09:36:03.429Z,17.02
2022-10-18T09:38:33.444Z,17.04
2022-10-18T09:41:07.236Z,16.94
2022-10-18T09:43:56.573Z,16.80
2022-10-18T09:46:30.731Z,16.68
2022-10-18T09:49:06.329Z,16.72
2022-10-18T09:51:39.089Z,16.65
2022-10-18T09:54:24.401Z,16.60
2022-10-18T09:56:57.300Z,16.59
2022-10-18T10:02:22.298Z,16.66
2022-10-18T10:04:50.341Z,16.67
2022-10-18T10:07:31.046Z,16.71
2022-10-18T10:10:14.114Z,16.80
2022-10-18T10:12:41.543Z,16.85
2022-10-18T10:15:23.382Z,16.95
2022-10-18T10:18:05.513Z,17.00
2022-10-18T10:20:44.054Z,16.97
2022-10-18T10:23:22.843Z,17.00
2022-10-18T10:25:54.683Z,16.91
2022-10-18T10:28:25.904Z,16.88
2022-10-18T10:30:52.469Z,16.84
2022-10-18T10:33:38.685Z,16.87
2022-10-18T10:36:16.056Z,16.92
2022-10-18T10:38:42.731Z,16.90
2022-10-18T10:41:21.500Z,16.92
2022-10-18T10:43:50.079Z,16.90
2022-10-18T10:46:18.989Z,17.01
2022-10-18T10:48:49.608Z,17.06
2022-10-18T10:51:28.523Z,17.09
2022-10-18T10:54:01.188Z,17.11
2022-10-18T10:56:35.233Z,17.08
2022-10-18T10:59:09.951Z,17.14
2022-10-18T11:01:36.623Z,17.14
2022-10-18T11:04:24.963Z,17.16
2022-10-18T11:07:09.944Z,17.31
2022-10-18T11:09:48.356Z,17.32
2022-10-18T11:12:30.880Z,17.27
2022-10-18T11:15:00.978Z,17.26
2022-10-18T11:17:39.734Z,17.30
2022-10-18T11:20:20.235Z,17.40
2022-10-18T11:22:58.860Z,17.40
2022-10-18T11:25:40.526Z,17.47
2022-10-18T11:28:26.661Z,17.40
2022-10-18T11:31:12.637Z,17.40
2022-10-18T11:34:09.378Z,17.52
2022-10-18T11:39:53.839Z,17.72
2022-10-18T11:42:47.752Z,17.55
2022-10-18T11:45:45.214Z,17.54
2022-10-18T11:48:24.642Z,17.54
2022-10-18T11:51:04.486Z,17.51
2022-10-18T11:53:51.029Z,17.57
2022-10-18T11:56:40.756Z,17.54
2022-10-18T11:59:24.579Z,17.47
2022-10-18T12:02:19.553Z,17.51
2022-10-18T12:04:58.431Z,17.53
2022-10-18T12:07:52.446Z,17.52
2022-10-18T12:10:31.643Z,17.55
2022-10-18T12:13:18.287Z,17.54
2022-10-18T12:15:45.497Z,17.48
2022-10-18T12:18:17.208Z,17.48
2022-10-18T12:20:49.096Z,17.48
2022-10-18T12:23:20.252Z,17.52
2022-10-18T12:25:50.985Z,17.56
2022-10-18T12:28:38.410Z,17.64
2022-10-18T12:31:23.597Z,17.72
2022-10-18T12:33:54.118Z,17.72
2022-10-18T12:36:47.748Z,17.81
2022-10-18T12:39:38.737Z,18.01
2022-10-18T12:42:22.787Z,18.31
2022-10-18T12:45:00.178Z,18.31
2022-10-18T12:47:29.192Z,18.32
2022-10-18T12:50:01.955Z,18.32
2022-10-18T12:52:31.033Z,18.33
2022-10-18T12:55:20.682Z,18.26
2022-10-18T12:58:13.358Z,18.14
2022-10-18T13:00:39.722Z,18.10
2022-10-18T13:03:11.789Z,18.11
2022-10-18T13:05:55.959Z,18.11
2022-10-18T13:08:31.969Z,17.98
2022-10-18T13:11:01.601Z,17.90
2022-10-18T13:13:53.054Z,17.77
2022-10-18T13:16:22.372Z,17.70
2022-10-18T13:19:08.212Z,17.68
2022-10-18T13:21:53.071Z,17.76
2022-10-18T13:24:26.646Z,17.85
2022-10-18T13:27:31.507Z,17.91
2022-10-18T13:30:25.822Z,17.93
2022-10-18T13:33:07.304Z,17.89
2022-10-18T13:35:44.368Z,17.85
2022-10-18T13:38:26.986Z,17.86
2022-10-18T13:41:20.565Z,17.76
2022-10-18T13:43:52.998Z,17.74
2022-10-18T13:46:23.640Z,17.64
2022-10-18T13:48:59.261Z,17.66
2022-10-18T13:52:03.281Z,17.78
2022-10-18T13:54:44.930Z,17.79
2022-10-18T13:57:22.494Z,17.72
2022-10-18T14:00:19.948Z,17.68
2022-10-18T14:03:02.412Z,17.67
2022-10-18T14:05:51.027Z,17.73
2022-10-18T14:08:44.656Z,17.75
2022-10-18T14:11:10.908Z,17.79
2022-10-18T14:13:52.354Z,17.78
2022-10-18T14:16:33.397Z,17.86
2022-10-18T14:19:14.493Z,17.87
2022-10-18T14:21:49.029Z,17.86
2022-10-18T14:24:20.753Z,17.89
2022-10-18T14:26:47.662Z,17.92
2022-10-18T14:29:19.637Z,17.93
2022-10-18T14:31:53.341Z,17.89
2022-10-18T14:34:26.325Z,17.85
2022-10-18T14:36:53.024Z,17.80
2022-10-18T14:39:23.818Z,17.78
2022-10-18T14:41:53.127Z,17.79
2022-10-18T14:44:24.626Z,17.78
2022-10-18T14:46:51.989Z,17.81
2022-10-18T14:49:20.191Z,17.75
2022-10-18T14:51:53.816Z,17.76
2022-10-18T14:54:26.195Z,17.79
2022-10-18T14:56:55.924Z,17.80
2022-10-18T14:59:26.629Z,17.81
2022-10-18T15:02:00.899Z,17.77
2022-10-18T15:04:29.104Z,17.75
2022-10-18T15:06:55.823Z,17.65
2022-10-18T15:09:24.361Z,17.62
2022-10-18T15:11:51.641Z,17.60
2022-10-18T15:14:19.890Z,17.60
2022-10-18T15:16:48.815Z,17.58
2022-10-18T15:19:15.257Z,17.69
2022-10-18T15:25:16.495Z,17.63
2022-10-18T15:27:49.454Z,17.55
2022-10-18T15:30:39.368Z,17.49
2022-10-18T15:33:08.167Z,17.41
2022-10-18T15:35:36.579Z,17.38
2022-10-18T15:38:24.644Z,17.33
2022-10-18T15:40:51.378Z,17.23
2022-10-18T15:43:23.988Z,17.23
2022-10-18T15:45:52.796Z,17.20
2022-10-18T15:48:25.972Z,17.17
2022-10-18T15:51:00.461Z,17.17
2022-10-18T15:53:35.018Z,17.12
2022-10-18T15:56:13.235Z,17.06
2022-10-18T15:58:44.443Z,17.00
2022-10-18T16:01:21.007Z,17.03
2022-10-18T16:03:48.645Z,17.04
2022-10-18T16:06:18.168Z,17.03
2022-10-18T16:08:50.627Z,16.98
2022-10-18T16:11:27.406Z,16.96
2022-10-18T16:13:57.794Z,16.86
2022-10-18T16:16:28.313Z,16.85
2022-10-18T16:18:55.730Z,16.80
2022-10-18T16:21:24.574Z,16.79
2022-10-18T16:23:51.435Z,16.71
2022-10-18T16:26:19.717Z,16.64
2022-10-18T16:28:47.010Z,16.49
2022-10-18T16:31:22.267Z,16.45
2022-10-18T16:33:49.690Z,16.44
2022-10-18T16:36:18.379Z,16.38
2022-10-18T16:38:45.216Z,16.32
2022-10-18T16:41:12.313Z,16.24
2022-10-18T16:43:39.959Z,16.19
2022-10-18T16:46:07.534Z,16.17
2022-10-18T16:48:34.219Z,16.12
2022-10-18T16:51:01.321Z,16.07
2022-10-18T16:53:27.844Z,16.06
2022-10-18T16:55:59.810Z,16.06
2022-10-18T16:58:28.527Z,15.99
2022-10-18T17:00:55.698Z,15.88
2022-10-18T17:03:23.329Z,15.82
2022-10-18T17:05:49.781Z,15.70
2022-10-18T17:08:20.813Z,15.74
2022-10-18T17:10:49.876Z,15.68
2022-10-18T17:13:16.577Z,15.72
2022-10-18T17:15:43.274Z,15.74
2022-10-18T17:18:15.461Z,15.66
2022-10-18T17:20:43.250Z,15.63
2022-10-18T17:23:10.585Z,15.62
2022-10-18T17:25:46.274Z,15.65
2022-10-18T17:28:24.133Z,15.57
2022-10-18T17:30:50.629Z,15.52
2022-10-18T17:33:17.444Z,15.49
2022-10-18T17:35:44.714Z,15.48
2022-10-18T17:38:11.078Z,15.41
2022-10-18T17:40:41.142Z,15.50
2022-10-18T17:43:07.652Z,15.47
2022-10-18T17:45:34.095Z,15.48
2022-10-18T17:48:00.523Z,15.44
2022-10-18T17:50:26.983Z,15.39
2022-10-18T17:52:53.320Z,15.39
2022-10-18T17:55:19.635Z,15.36
2022-10-18T17:57:46.088Z,15.30
2022-10-18T18:00:13.699Z,15.35
2022-10-18T18:02:41.843Z,15.25
2022-10-18T18:05:08.815Z,15.19
2022-10-18T18:07:35.405Z,15.11
2022-10-18T18:10:02.676Z,15.07
2022-10-18T18:12:29.459Z,15.02
2022-10-18T18:14:55.997Z,15.06
2022-10-18T18:17:33.613Z,15.01
2022-10-18T18:20:01.154Z,15.01
2022-10-18T18:22:27.513Z,15.02
2022-10-18T18:24:54.109Z,14.99
2022-10-18T18:30:11.036Z,14.95
2022-10-18T18:32:37.747Z,14.92
2022-10-18T18:35:04.365Z,14.98
2022-10-18T18:37:30.769Z,14.87
2022-10-18T18:39:57.424Z,14.87
2022-10-18T18:42:24.027Z,14.88
2022-10-18T18:44:50.357Z,14.90
2022-10-18T18:49:43.098Z,14.83
2022-10-18T18:52:09.629Z,14.84
2022-10-18T18:54:35.988Z,14.83
2022-10-18T18:57:02.661Z,14.68
2022-10-18T18:59:29.049Z,14.76
2022-10-18T19:01:55.554Z,14.83
2022-10-18T19:04:21.950Z,14.86
2022-10-18T19:06:48.708Z,14.82
2022-10-18T19:09:16.929Z,14.79
2022-10-18T19:11:43.292Z,14.79
2022-10-18T19:14:10.279Z,14.73
2022-10-18T19:16:38.780Z,14.74
2022-10-18T19:19:13.333Z,14.72
2022-10-18T19:21:50.097Z,14.72
2022-10-18T19:24:16.493Z,14.70
2022-10-18T19:26:48.834Z,14.66
2022-10-18T19:29:20.815Z,14.61
2022-10-18T19:31:47.922Z,14.66
2022-10-18T19:34:16.228Z,14.70
2022-10-18T19:36:45.040Z,14.60
2022-10-18T19:39:18.289Z,14.60
2022-10-18T19:41:46.014Z,14.59
2022-10-18T19:44:12.940Z,14.55
2022-10-18T19:46:39.442Z,14.54
2022-10-18T19:49:05.834Z,14.47
2022-10-18T19:51:32.410Z,14.37
2022-10-18T19:53:58.998Z,14.23
2022-10-18T19:56:27.571Z,14.16
2022-10-18T19:58:54.452Z,14.12
2022-10-18T20:01:20.864Z,14.09
2022-10-18T20:03:47.504Z,14.07
2022-10-18T20:06:14.688Z,14.03
2022-10-18T20:11:12.001Z,14.05
2022-10-18T20:13:38.815Z,14.10
2022-10-18T20:16:07.245Z,14.06
2022-10-18T20:18:33.802Z,14.03
2022-10-18T20:21:00.253Z,13.95
2022-10-18T20:23:26.739Z,13.87
2022-10-18T20:26:01.081Z,13.83
2022-10-18T20:28:28.499Z,13.77
2022-10-18T20:31:06.966Z,13.72
2022-10-18T20:33:34.275Z,13.61
2022-10-18T20:36:15.248Z,13.56
2022-10-18T20:38:43.748Z,13.52
2022-10-18T20:41:22.685Z,13.50
2022-10-18T20:44:00.618Z,13.49
2022-10-18T20:46:29.791Z,13.47
2022-10-18T20:48:56.489Z,13.47
2022-10-18T20:51:23.993Z,13.41
2022-10-18T20:53:50.815Z,13.36
2022-10-18T20:56:23.126Z,13.34
2022-10-18T20:58:52.053Z,13.33
2022-10-18T21:01:21.298Z,13.36
2022-10-18T21:03:49.762Z,13.37
2022-10-18T21:06:29.789Z,13.38
2022-10-18T21:08:58.377Z,13.38
2022-10-18T21:11:26.388Z,13.39
2022-10-18T21:13:55.304Z,13.38
2022-10-18T21:16:22.138Z,13.35
2022-10-18T21:18:49.045Z,13.35
2022-10-18T21:21:18.112Z,13.36
2022-10-18T21:23:45.322Z,13.32
2022-10-18T21:26:15.097Z,13.37
2022-10-18T21:28:41.664Z,13.34
2022-10-18T21:31:13.125Z,13.23
2022-10-18T21:33:40.948Z,13.19
2022-10-18T21:36:08.140Z,13.17
2022-10-18T21:38:34.551Z,13.14
2022-10-18T21:41:01.352Z,13.10
2022-10-18T21:43:28.155Z,13.12
2022-10-18T21:45:59.428Z,13.06
2022-10-18T21:48:27.018Z,13.03
2022-10-18T21:50:53.992Z,12.96
2022-10-18T21:53:21.464Z,12.96
2022-10-18T21:55:48.012Z,12.94
2022-10-18T21:58:15.118Z,12.95
2022-10-18T22:00:41.578Z,12.98
2022-10-18T22:03:08.745Z,12.99
2022-10-18T22:05:35.190Z,12.97
2022-10-18T22:08:02.051Z,12.97
2022-10-18T22:10:28.831Z,12.91
2022-10-18T22:12:55.518Z,12.88
2022-10-18T22:15:21.983Z,12.85
2022-10-18T22:17:48.381Z,12.78
2022-10-18T22:20:14.907Z,12.80
2022-10-18T22:22:41.700Z,12.74
2022-10-18T22:25:08.511Z,12.75
2022-10-18T22:27:35.462Z,12.74
2022-10-18T22:30:02.092Z,12.70
2022-10-18T22:32:28.429Z,12.63
2022-10-18T22:34:54.837Z,12.72
2022-10-18T22:37:21.151Z,12.64
2022-10-18T22:39:47.501Z,12.65
2022-10-18T22:42:14.176Z,12.62
2022-10-18T22:44:40.623Z,12.57
2022-10-18T22:47:06.955Z,12.50
2022-10-18T22:49:33.355Z,12.54
2022-10-18T22:51:59.767Z,12.51
2022-10-18T22:54:26.102Z,12.48
2022-10-18T22:56:52.500Z,12.50
2022-10-18T22:59:18.927Z,12.44
2022-10-18T23:01:45.439Z,12.43
2022-10-18T23:04:11.855Z,12.43
2022-10-18T23:06:39.914Z,12.40
2022-10-18T23:09:08.963Z,12.30
2022-10-18T23:11:36.677Z,12.22
2022-10-18T23:14:05.140Z,12.23
2022-10-18T23:16:31.861Z,12.27
2022-10-18T23:18:59.011Z,12.26
2022-10-18T23:21:27.497Z,12.29
2022-10-18T23:23:54.436Z,12.29
2022-10-18T23:26:23.262Z,12.27
2022-10-18T23:28:51.909Z,12.24
2022-10-18T23:31:26.981Z,12.33
2022-10-18T23:33:55.289Z,12.31
2022-10-18T23:36:22.951Z,12.30
2022-10-18T23:38:50.053Z,12.21
2022-10-18T23:41:17.379Z,12.21
2022-10-18T23:43:44.399Z,12.25
2022-10-18T23:46:12.218Z,12.23
2022-10-18T23:48:38.740Z,12.15
2022-10-18T23:51:05.741Z,12.14
2022-10-18T23:53:33.520Z,12.06
2022-10-18T23:56:08.581Z,11.98
